map of ACC home
ACC - Airport
Location
City:  Accra, Ghana
Name:Kotoka International Airport
ICAO:DGAA
IATA:ACC

Details
Type:Airport (Aerodrome, Airfield)
Use:Public/Civil, Military, International (customs port of entry)
Latitude:536'19"N (5.605186)
Longitude:010'00"W (-0.166785)
Datum:WGS 1984
Elevation:205 ft (62 m)
Variation:3.31W (WMM2015 magnetic declination)
0.11 annual change
Runways:1
Longest:11165 × 200 ft (3403 × 61 m), paved

Time
Time Zone:UTC+0
Local Time:

Weather
METAR:DGAA 160700Z 28006KT 3000 BR NSC 26/25 Q1014 NOSIG
TAF:DGAA 160500Z 1606/1712 27005KT 5000 HZ NSC PROB40 1606/1609 3000 BR
BECMG 1610/1612 19010KT
FM162300 26005KT CAVOK

Related Locations
Nearby:
Farthest:FUN: 12225 mi / 19675 km
Funafuti Atoll [Intl], TV

Find:

   beyond  
but within

Other Information
Maps:
NOTAMs:
Links:
Sources:

  
  • flag of Ghana
  

Sectional Chart

Flight Planning
at skyvector.com

Satellite Image

Google Maps Satellite view

 

Copyright © 2004-2018 Karl L. Swartz. All rights reserved.
The Great Circle Mapper name and logo are trademarks of the Great Circle Mapper.
All other trademarks mentioned herein belong to their respective owners.
Please see credits for attibutions and further copyright information.

  Follow gcmap on Facebook Follow gcmap on Twitter Follow gcmap on Google+ GCmap on LinkedIn

hCard Microformat

Geo Microformat